This is the latest recevied weather packets stored in our database for station/object KL1SF-7. If no packets are shown the sender has not sent any weather packets the latest 10 day(s).
| Time | Temp. | Humidity | Pressure | Rain* | Wind** | Luminosity | Snow |
|---|---|---|---|---|---|---|---|
| 1777165411 | 10° C | 38% | 1010.1 hPa | 0 mm | - | - | - |
| 1777164812 | 10° C | 38% | 1010.2 hPa | 0 mm | - | - | - |
| 1777164201 | 10° C | 37% | 1010.2 hPa | 0 mm | - | - | - |
| 1777163615 | 10° C | 40% | 1010.2 hPa | 0 mm | - | - | - |
| 1777163016 | 10° C | 42% | 1010.2 hPa | 0 mm | - | - | - |
| 1777162410 | 9.44° C | 45% | 1010.2 hPa | 0 mm | - | - | - |
| 1777161823 | 9.44° C | 45% | 1010.7 hPa | 0 mm | - | - | - |
| 1777161206 | 9.44° C | 44% | 1010.1 hPa | 0 mm | - | - | - |
| 1777160616 | 9.44° C | 43% | 1010.1 hPa | 0 mm | - | - | - |
| 1777160029 | 9.44° C | 44% | 1010.5 hPa | 0 mm | - | - | - |
| 1777159413 | 8.89° C | 47% | 1011 hPa | 0 mm | - | - | - |
| 1777158806 | 9.44° C | 45% | 1011 hPa | 0 mm | - | - | - |
| 1777158220 | 10.56° C | 39% | 1010.8 hPa | 0 mm | - | - | - |
| 1777157621 | 11.11° C | 31% | 1010.2 hPa | 0 mm | - | - | - |
| 1777157009 | 11.11° C | 28% | 1010.2 hPa | 0 mm | - | - | - |
| 1777156423 | 11.67° C | 25% | 1010.6 hPa | 0 mm | - | - | - |
| 1777155807 | 12.78° C | 23% | 1010.3 hPa | 0 mm | - | - | - |
| 1777155206 | 13.33° C | 21% | 1010.3 hPa | 0 mm | - | - | - |
| 1777154622 | 13.33° C | 21% | 1010.8 hPa | 0 mm | - | - | - |
| 1777154003 | 13.89° C | 20% | 1010.8 hPa | 0 mm | - | - | - |
| 1777153412 | 13.33° C | 21% | 1010.8 hPa | 0 mm | - | - | - |
| 1777152828 | 13.33° C | 21% | 1010.9 hPa | 0 mm | - | - | - |
| 1777152209 | 13.89° C | 22% | 1010.9 hPa | 0 mm | - | - | - |
| 1777151602 | 13.89° C | 22% | 1010.9 hPa | 0 mm | - | - | - |
| 1777151019 | 13.33° C | 22% | 1010.6 hPa | 0 mm | - | - | - |
* Rain since midnight (hover to see other rain measurements)
** Current wind speed in m/s (hover to see current wind gust speed)